• expired

[Switch] The Legend of Zelda BotW $62.95, Cadence of Hyrule $26.25, Dragon Ball FighterZ $26.98 + More @ Nintendo eShop

2520

This year's eShop Cyber Deals plus some other November discounts.

Game Start End Normal Sale Price % off Lowest Price
Mana Spark 19/11/2019 00:00 15/12/2019 23:59 $14.99 $1.49 90.06% $1.49
Shalnor Legends: Sacred Lands 19/11/2019 01:00 30/11/2019 23:59 $14.99 $1.49 90.06% $1.49
Vosaria: Lair of the Forgotten 19/11/2019 01:00 30/11/2019 23:59 $14.99 $1.49 90.06% $1.49
Viviette 21/11/2019 01:00 19/12/2019 23:59 $14.99 $11.99 20.01% $11.99
Chronus Arc 21/11/2019 10:00 04/12/2019 23:59 $19.50 $13.65 30.00% $13.65
Table Top Racing: World Tour - Nitro Edition 21/11/2019 10:00 12/12/2019 23:59 $14.99 $7.49 50.03% $7.49
Fernz Gate 21/11/2019 10:00 04/12/2019 23:59 $19.50 $11.70 40.00% $11.70
Zotrix: Solar Division 21/11/2019 19:00 05/12/2019 23:59 $22.50 $2.25 90.00% $2.25
The Drama Queen Murder 21/11/2019 19:00 05/12/2019 23:59 $15.00 $10.50 30.00% $10.50
Miner Warfare 22/11/2019 00:00 06/12/2019 23:59 $12.00 $9.60 20.00% $9.60
2048 Battles 22/11/2019 00:00 22/12/2019 23:59 $6.00 $3.60 40.00% $3.60
FunBox Party 22/11/2019 00:00 22/12/2019 23:59 $3.00 $1.50 50.00% $1.50
Doom & Destiny 22/11/2019 00:00 06/12/2019 23:59 $17.99 $14.39 20.01% $14.39
Sushi Time! 22/11/2019 00:00 22/12/2019 23:59 $7.50 $3.75 50.00% $3.75
Balance Blox 22/11/2019 01:00 01/12/2019 23:59 $4.50 $2.25 50.00% $2.25
Perry Pig Jump 22/11/2019 01:00 01/12/2019 23:59 $4.50 $2.25 50.00% $2.25
Bubble Shooter DX 22/11/2019 01:00 01/12/2019 23:59 $4.50 $2.25 50.00% $2.25
Marble Power Blast 22/11/2019 01:00 01/12/2019 23:59 $4.50 $2.25 50.00% $2.25
Spencer 22/11/2019 01:00 01/12/2019 23:59 $10.50 $5.25 50.00% $3.15
Aces of the Luftwaffe - Squadron Extended Edition 22/11/2019 01:00 04/12/2019 23:59 $36.99 $24.49 33.79% $24.49
M.A.C.E. Space Shooter 22/11/2019 01:00 01/12/2019 23:59 $7.50 $3.75 50.00% $3.75
Swamp Defense 2 22/11/2019 01:00 01/12/2019 23:59 $4.50 $2.25 50.00% $2.25
Gnomes Garden 3: The thief of castles 22/11/2019 01:00 05/12/2019 23:59 $7.50 $4.50 40.00% $3.00
Baobabs Mausoleum Ep.1: Ovnifagos Don't Eat Flamingos 22/11/2019 01:00 05/12/2019 23:59 $9.00 $1.49 83.44% $1.49
Mad Carnage 22/11/2019 01:00 22/12/2019 23:59 $7.50 $1.50 80.00% $1.50
Typoman 22/11/2019 01:00 05/12/2019 23:59 $19.50 $7.80 60.00% $7.80
Monkey Business 22/11/2019 01:00 11/12/2019 23:59 $12.00 $2.40 80.00% $2.40
Baobabs Mausoleum Ep.2: 1313 Barnabas Dead End Drive 22/11/2019 01:00 05/12/2019 23:59 $9.00 $2.25 75.00% $2.25
Super Star Blast 22/11/2019 01:00 01/12/2019 23:59 $7.50 $3.75 50.00% $3.75
Sweet Witches 22/11/2019 02:00 22/12/2019 23:59 $15.00 $4.50 70.00% $4.50
Mech Rage 22/11/2019 02:00 22/12/2019 23:59 $15.00 $2.25 85.00% $2.25
Event Horizon 22/11/2019 03:00 22/12/2019 23:59 $9.00 $2.25 75.00% $2.25
Apocryph: an old-school shooter 22/11/2019 10:00 01/12/2019 23:59 $19.99 $13.99 30.02% $13.99
Creepy Road 22/11/2019 10:00 22/12/2019 23:59 $19.50 $9.75 50.00% $9.75
Spice and Wolf VR 22/11/2019 10:00 04/12/2019 23:59 $34.00 $27.20 20.00% $27.20
Caveblazers 22/11/2019 20:00 06/12/2019 23:59 $19.99 $4.99 75.04% $4.99
OlliOlli: Switch Stance 23/11/2019 01:00 01/12/2019 23:59 $22.50 $9.00 60.00% $9.00
BLAZBLUE CENTRALFICTION Special Edition 23/11/2019 01:00 01/12/2019 23:59 $60.00 $39.00 35.00% $39.00
Challenge Dungeon "Sunken Ruins" 23/11/2019 01:00 01/12/2019 23:59 $10.50 $5.25 50.00% $5.25
DYNASTY WARRIORS 8: Xtreme Legends Definitive Edition 23/11/2019 01:00 01/12/2019 23:59 $60.00 $42.00 30.00% $42.00
Darkest Dungeon®: Ancestral Edition 23/11/2019 01:00 01/12/2019 23:59 $52.00 $36.40 30.00% $36.40
Shantae: Pirate Queen's Quest 23/11/2019 01:00 01/12/2019 23:59 $15.00 $7.50 50.00% $7.50
Shantae: Friends to the End 23/11/2019 01:00 01/12/2019 23:59 $12.00 $6.00 50.00% $6.00
Darkest Dungeon®: The Crimson Court 23/11/2019 01:00 01/12/2019 23:59 $13.49 $9.44 30.02% $9.44
Darkest Dungeon®: The Shieldbreaker 23/11/2019 01:00 01/12/2019 23:59 $4.99 $3.49 30.06% $3.49
Shantae: Costume Pack 23/11/2019 01:00 01/12/2019 23:59 $12.00 $6.00 50.00% $6.00
New Super Mario Bros.™ U Deluxe 23/11/2019 01:00 01/12/2019 23:59 $79.95 $55.95 30.02% $55.95
Darkest Dungeon®: The Color of Madness 23/11/2019 01:00 01/12/2019 23:59 $7.50 $5.25 30.00% $5.25
Challenge Dungeon "Hellfire Lair" 23/11/2019 01:00 01/12/2019 23:59 $10.50 $5.25 50.00% $5.25
Tales of Vesperia™: Definitive Edition 23/11/2019 01:00 01/12/2019 23:59 $79.95 $39.95 50.03% $39.95
Sundered: Eldritch Edition 23/11/2019 01:00 01/12/2019 23:59 $28.95 $11.58 60.00% $11.58
Katamari Damacy REROLL 23/11/2019 01:00 01/12/2019 23:59 $29.95 $14.95 50.08% $14.95
ABZÛ 23/11/2019 01:00 01/12/2019 23:59 $30.00 $21.00 30.00% $21.00
SEGA AGES Phantasy Star 23/11/2019 01:00 01/12/2019 23:59 $10.95 $5.47 50.05% $5.47
Battle Princess Madelyn 23/11/2019 01:00 01/12/2019 23:59 $22.50 $9.00 60.00% $9.00
The Legend of Zelda: Breath of the Wild Expansion Pass 23/11/2019 01:00 01/12/2019 23:59 $30.00 $21.00 30.00% $21.00
LEGO® Marvel Super Heroes 2 Season Pass 23/11/2019 01:00 01/12/2019 23:59 $22.95 $10.55 54.03% $10.55
Xenoblade Chronicles™ 2: Expansion Pass 23/11/2019 01:00 01/12/2019 23:59 $45.00 $31.50 30.00% $30.00
The Legend of Zelda™: Breath of the Wild + Expansion Pass 23/11/2019 01:00 01/12/2019 23:59 $119.95 $83.95 30.01% $83.95
DRAGON BALL FIGHTERZ - FighterZ Pass 23/11/2019 01:00 01/12/2019 23:59 $47.95 $23.95 50.05% $23.95
DRAGON BALL FIGHTERZ - Ultimate Edition 23/11/2019 01:00 01/12/2019 23:59 $149.95 $44.98 70.00% $44.98
Mimpi Dreams 23/11/2019 01:00 01/12/2019 23:59 $14.99 $5.99 60.04% $2.99
Don’t Starve: Nintendo Switch Edition 23/11/2019 01:00 01/12/2019 23:59 $25.00 $7.50 70.00% $7.50
Sky Force Anniversary 23/11/2019 01:00 01/12/2019 23:59 $15.00 $7.50 50.00% $7.50
Zarvot 23/11/2019 01:00 01/12/2019 23:59 $29.99 $20.09 33.01% $20.09
SKYHILL 23/11/2019 01:00 01/12/2019 23:59 $7.50 $5.25 30.00% $3.00
Assault Android Cactus+ 23/11/2019 01:00 01/12/2019 23:59 $30.00 $15.00 50.00% $15.00
Dragon Quest Builders 2 23/11/2019 01:00 01/12/2019 23:59 $79.95 $55.95 30.02% $55.95
Valley 23/11/2019 01:00 01/12/2019 23:59 $25.95 $12.97 50.02% $12.97
City of Brass 23/11/2019 01:00 01/12/2019 23:59 $19.99 $7.99 60.03% $7.99
The Liar Princess and the Blind Prince 23/11/2019 01:00 01/12/2019 23:59 $30.00 $15.00 50.00% $15.00
Cinders 23/11/2019 01:00 01/12/2019 23:59 $30.00 $15.00 50.00% $15.00
Dragon's Dogma: Dark Arisen 23/11/2019 01:00 01/12/2019 23:59 $39.95 $26.60 33.42% $26.60
SEGA AGES Alex Kidd in Miracle World 23/11/2019 01:00 01/12/2019 23:59 $10.95 $5.47 50.05% $5.47
Aggelos 23/11/2019 01:00 01/12/2019 23:59 $21.00 $13.65 35.00% $13.65
Silence 23/11/2019 01:00 01/12/2019 23:59 $60.00 $30.00 50.00% $30.00
Super Dragon Ball Heroes: World Mission Anime Music Pack 1 23/11/2019 01:00 01/12/2019 23:59 $22.95 $11.45 50.11% $11.45
Super Dragon Ball Heroes: World Mission Anime Music Pack 2 23/11/2019 01:00 01/12/2019 23:59 $22.95 $11.45 50.11% $11.45
SUPER DRAGON BALL HEROES WORLD MISSION 23/11/2019 01:00 01/12/2019 23:59 $89.98 $59.95 33.37% $59.95
Lapis x Labyrinth 23/11/2019 01:00 01/12/2019 23:59 $45.00 $22.50 50.00% $22.50
Puyo Puyo Champions 23/11/2019 01:00 01/12/2019 23:59 $14.95 $7.47 50.03% $7.47
Shakedown: Hawaii 23/11/2019 01:00 01/12/2019 23:59 $30.00 $19.50 35.00% $19.50
Mortal Kombat 11 Premium Edition 23/11/2019 01:00 01/12/2019 23:59 $144.95 $72.47 50.00% $72.47
Swim Out 23/11/2019 01:00 01/12/2019 23:59 $9.00 $6.00 33.33% $2.97
Vostok Inc. 23/11/2019 01:00 01/12/2019 23:59 $19.99 $9.99 50.03% $9.99
Max: The Curse of Brotherhood 23/11/2019 01:00 01/12/2019 23:59 $21.99 $10.99 50.02% $8.79
The Elder Scrolls V: Skyrim® 23/11/2019 01:00 01/12/2019 23:59 $79.95 $39.95 50.03% $39.95
Wizard of Legend 23/11/2019 01:00 01/12/2019 23:59 $25.99 $15.59 40.02% $15.59
Mega Man 11 23/11/2019 01:00 01/12/2019 23:59 $39.95 $19.97 50.01% $19.97
Mega Man X Legacy Collection 23/11/2019 01:00 01/12/2019 23:59 $29.95 $14.97 50.02% $14.97
Mega Man X Legacy Collection 2 23/11/2019 01:00 01/12/2019 23:59 $29.95 $14.97 50.02% $14.97
Last Day of June 23/11/2019 01:00 01/12/2019 23:59 $30.00 $15.00 50.00% $15.00
Stikbold! A Dodgeball Adventure DELUXE 23/11/2019 01:00 01/12/2019 23:59 $22.49 $11.02 51.00% $11.02
Furi 23/11/2019 01:00 01/12/2019 23:59 $29.99 $14.99 50.02% $13.49
Monster Hunter Generations Ultimate™ 23/11/2019 01:00 01/12/2019 23:59 $79.95 $39.97 50.01% $39.97
Mega Man Legacy Collection 2 23/11/2019 01:00 01/12/2019 23:59 $22.95 $15.30 33.33% $15.14
Darkest Dungeon® 23/11/2019 01:00 01/12/2019 23:59 $32.95 $23.06 30.02% $19.77
The LEGO® NINJAGO® Movie Videogame 23/11/2019 01:00 01/12/2019 23:59 $89.95 $29.68 67.00% $29.68
Octopath Traveler™ 23/11/2019 01:00 01/12/2019 23:59 $89.95 $53.95 40.02% $53.95
Aegis Defenders 23/11/2019 01:00 01/12/2019 23:59 $23.95 $11.97 50.02% $11.97
Riptide GP: Renegade 23/11/2019 01:00 01/12/2019 23:59 $14.99 $5.99 60.04% $5.99
Earth Atlantis 23/11/2019 01:00 01/12/2019 23:59 $22.50 $11.25 50.00% $9.00
LEGO® The Incredibles 23/11/2019 01:00 01/12/2019 23:59 $89.95 $37.77 58.01% $37.77
Cat Quest 23/11/2019 01:00 01/12/2019 23:59 $15.50 $5.42 65.03% $5.42
Mega Man Legacy Collection 23/11/2019 01:00 01/12/2019 23:59 $22.95 $15.30 33.33% $15.14
Danmaku Unlimited 3 23/11/2019 01:00 01/12/2019 23:59 $13.50 $3.37 75.04% $3.37
Yooka-Laylee 23/11/2019 01:00 01/12/2019 23:59 $60.00 $20.40 66.00% $20.40
Bloody Zombies 23/11/2019 01:00 01/12/2019 23:59 $19.99 $8.99 55.03% $7.99
NARUTO SHIPPUDEN: Ultimate Ninja STORM Trilogy 23/11/2019 01:00 01/12/2019 23:59 $79.90 $39.95 50.00% $39.95
SpiritSphere DX 23/11/2019 01:00 01/12/2019 23:59 $15.00 $6.00 60.00% $3.75
Romancing SaGa 2 23/11/2019 01:00 01/12/2019 23:59 $37.95 $28.46 25.01% $18.97
Street Fighter™ 30th Anniversary Collection 23/11/2019 01:00 01/12/2019 23:59 $79.95 $31.98 60.00% $31.98
Regalia: Of Men and Monarchs - Royal Edition 23/11/2019 01:00 01/12/2019 23:59 $39.99 $15.99 60.02% $15.99
Tricky Towers 23/11/2019 01:00 01/12/2019 23:59 $22.50 $13.50 40.00% $13.50
Mantis Burn Racing 23/11/2019 01:00 01/12/2019 23:59 $24.99 $17.49 30.01% $8.74
Wandersong 23/11/2019 01:00 01/12/2019 23:59 $30.00 $15.00 50.00% $15.00
The Longest Five Minutes 23/11/2019 01:00 01/12/2019 23:59 $59.95 $29.97 50.01% $29.97
Sky Force Reloaded 23/11/2019 01:00 01/12/2019 23:59 $15.00 $7.50 50.00% $7.50
BUTCHER 23/11/2019 01:00 01/12/2019 23:59 $15.00 $5.25 65.00% $5.25
Gorogoa 23/11/2019 01:00 01/12/2019 23:59 $17.99 $8.99 50.03% $8.99
Overcooked Special Edition 23/11/2019 01:00 01/12/2019 23:59 $26.00 $8.84 66.00% $8.84
Semispheres 23/11/2019 01:00 01/12/2019 23:59 $14.99 $7.49 50.03% $1.49
Bit Dungeon+ 23/11/2019 01:00 01/12/2019 23:59 $13.50 $6.75 50.00% $4.05
Penny-Punching Princess 23/11/2019 01:00 01/12/2019 23:59 $59.95 $29.97 50.01% $29.97
LEGO® Worlds 23/11/2019 01:00 01/12/2019 23:59 $49.95 $24.97 50.01% $24.97
Slime-san 23/11/2019 01:00 01/12/2019 23:59 $15.00 $6.00 60.00% $6.00
INVERSUS Deluxe 23/11/2019 01:00 01/12/2019 23:59 $17.99 $4.49 75.04% $3.59
Xenoblade Chronicles™ 2 23/11/2019 01:00 01/12/2019 23:59 $89.95 $62.95 30.02% $59.95
Beach Buggy Racing 23/11/2019 01:00 01/12/2019 23:59 $14.99 $5.99 60.04% $5.99
Shantae: Half-Genie Hero 23/11/2019 01:00 01/12/2019 23:59 $22.99 $11.49 50.02% $11.49
LEGO® Marvel Super Heroes 2 23/11/2019 01:00 01/12/2019 23:59 $89.95 $29.68 67.00% $29.68
Brawlout 23/11/2019 01:00 01/12/2019 23:59 $30.00 $12.00 60.00% $12.00
Portal Knights 23/11/2019 01:00 01/12/2019 23:59 $59.95 $41.96 30.01% $41.96
The Legend of Zelda™: Breath of the Wild 23/11/2019 01:00 01/12/2019 23:59 $89.95 $62.95 30.02% $62.95
1-2-Switch™ 23/11/2019 01:00 01/12/2019 23:59 $69.95 $41.95 40.03% $41.95
Super Bomberman R 23/11/2019 01:00 01/12/2019 23:59 $45.00 $22.50 50.00% $22.50
Super Mario Odyssey™ 23/11/2019 01:00 01/12/2019 23:59 $79.95 $55.95 30.02% $53.30
Infinite Minigolf 23/11/2019 01:00 01/12/2019 23:59 $19.50 $7.80 60.00% $7.79
Disgaea 5 Complete 23/11/2019 01:00 01/12/2019 23:59 $89.95 $29.68 67.00% $29.68
Thumper 23/11/2019 01:00 01/12/2019 23:59 $29.95 $7.48 75.03% $7.48
Rocket League® 23/11/2019 01:00 01/12/2019 23:59 $25.34 $12.67 50.00% $12.67
Fairune Collection 23/11/2019 01:00 01/12/2019 23:59 $17.95 $8.97 50.03% $8.97
Dragon Ball FighterZ 23/11/2019 01:00 01/12/2019 23:59 $89.95 $26.98 70.01% $26.98
PLANET ALPHA 23/11/2019 01:00 01/12/2019 23:59 $27.00 $6.75 75.00% $6.75
Semblance 23/11/2019 01:00 01/12/2019 23:59 $15.00 $6.00 60.00% $6.00
GRIP 23/11/2019 01:00 01/12/2019 23:59 $59.99 $29.99 50.01% $29.99
Shining Resonance Refrain 23/11/2019 01:00 01/12/2019 23:59 $63.95 $31.97 50.01% $31.97
Project Highrise: Architect's Edition 23/11/2019 01:00 01/12/2019 23:59 $60.00 $33.00 45.00% $33.00
Yonder: The Cloud Catcher Chronicles 23/11/2019 01:00 01/12/2019 23:59 $35.00 $22.75 35.00% $22.75
Kero Blaster 23/11/2019 01:00 01/12/2019 23:59 $15.00 $7.50 50.00% $7.50
DARK SOULS™ Remastered 23/11/2019 01:00 01/12/2019 23:59 $59.95 $35.95 40.03% $35.95
DOOM 23/11/2019 01:00 01/12/2019 23:59 $79.95 $39.95 50.03% $39.95
Songbringer 23/11/2019 01:00 01/12/2019 23:59 $30.00 $15.00 50.00% $15.00
The Warlock of Firetop Mountain: Goblin Scourge Edition! 23/11/2019 01:00 01/12/2019 23:59 $34.99 $13.99 60.02% $13.99
Warp Shift 23/11/2019 01:00 01/12/2019 23:59 $15.00 $1.50 90.00% $1.50
Squids Odyssey 23/11/2019 01:00 01/12/2019 23:59 $22.50 $4.50 80.00% $4.50
Mark of the Ninja: Remastered 23/11/2019 01:00 01/12/2019 23:59 $30.00 $15.00 50.00% $15.00
Jotun: Valhalla Edition 23/11/2019 01:00 12/12/2019 23:59 $17.50 $5.77 67.03% $5.77
Hexologic 23/11/2019 01:00 01/12/2019 23:59 $4.49 $1.79 60.13% $1.79
Streets of Red - Devil's Dare Deluxe 23/11/2019 01:00 01/12/2019 23:59 $12.99 $9.09 30.02% $7.35
Gone Home 23/11/2019 01:00 01/12/2019 23:59 $17.99 $8.99 50.03% $8.99
CastleStorm 23/11/2019 01:00 01/12/2019 23:59 $22.50 $9.00 60.00% $9.00
Prison Architect: Nintendo Switch™ Edition 23/11/2019 01:00 01/12/2019 23:59 $41.70 $16.68 60.00% $16.68
Valkyria Chronicles 4 23/11/2019 01:00 01/12/2019 23:59 $63.95 $31.97 50.01% $31.97
Beekyr Reloaded 23/11/2019 01:00 08/12/2019 23:59 $14.99 $8.99 40.03% $8.99
The Room 23/11/2019 01:00 01/12/2019 23:59 $11.99 $4.07 66.06% $4.07
Capcom Beat 'Em Up Bundle 23/11/2019 01:00 01/12/2019 23:59 $29.95 $14.97 50.02% $14.97
LEGO® Harry Potter™ Collection 23/11/2019 01:00 01/12/2019 23:59 $54.95 $27.47 50.01% $27.47
Debris Infinity 23/11/2019 01:00 01/12/2019 23:59 $7.50 $5.25 30.00% $5.25
Sid Meier’s Civilization VI 23/11/2019 01:00 06/12/2019 23:59 $89.95 $44.97 50.01% $44.97
Astebreed 23/11/2019 01:00 01/12/2019 23:59 $17.40 $10.44 40.00% $10.44
Labyrinth of Refrain: Coven of Dusk 23/11/2019 01:00 01/12/2019 23:59 $75.00 $37.50 50.00% $37.50
The Inner World - The Last Wind Monk 23/11/2019 01:00 01/12/2019 23:59 $22.50 $9.00 60.00% $9.00
MY HERO ONE'S JUSTICE 23/11/2019 01:00 01/12/2019 23:59 $90.99 $35.95 60.49% $35.95
The Escapists: Complete Edition 23/11/2019 01:00 01/12/2019 23:59 $19.99 $7.99 60.03% $7.99
MechaNika 23/11/2019 01:00 01/12/2019 23:59 $9.05 $5.88 35.03% $5.88
STAY 23/11/2019 01:00 01/12/2019 23:59 $18.00 $9.90 45.00% $9.90
Valkyria Chronicles 23/11/2019 01:00 01/12/2019 23:59 $26.95 $13.47 50.02% $13.47
God Wars The Complete Legend 23/11/2019 01:00 01/12/2019 23:59 $60.00 $30.00 50.00% $30.00
Horizon Chase Turbo 23/11/2019 01:00 01/12/2019 23:59 $30.00 $15.00 50.00% $15.00
Ys VIII: Lacrimosa of DANA 23/11/2019 01:00 01/12/2019 23:59 $89.95 $44.97 50.01% $44.97
Scribblenauts Mega Pack 23/11/2019 01:00 01/12/2019 23:59 $44.95 $15.73 65.01% $15.73
Lanota 23/11/2019 01:00 01/12/2019 23:59 $26.95 $13.47 50.02% $13.47
Yomawari: The Long Night Collection 23/11/2019 01:00 01/12/2019 23:59 $60.00 $30.00 50.00% $30.00
Happy Birthdays 23/11/2019 01:00 01/12/2019 23:59 $69.95 $25.88 63.00% $25.88
SNK 40th ANNIVERSARY COLLECTION 23/11/2019 01:00 01/12/2019 23:59 $60.00 $36.00 40.00% $36.00
SEGA AGES Sonic The Hedgehog 23/11/2019 01:00 01/12/2019 23:59 $10.95 $5.47 50.05% $5.47
Disgaea 1 Complete 23/11/2019 01:00 01/12/2019 23:59 $75.00 $37.50 50.00% $37.50
Hyperforma 23/11/2019 01:00 01/12/2019 23:59 $13.50 $9.45 30.00% $9.45
Lanternium 23/11/2019 01:00 13/12/2019 23:59 $15.00 $7.50 50.00% $7.50
CONTRA: ROGUE CORPS 23/11/2019 01:00 01/12/2019 23:59 $60.00 $42.00 30.00% $42.00
Northgard 23/11/2019 01:00 01/12/2019 23:59 $52.50 $26.25 50.00% $26.25
Ghostbusters: The Video Game Remastered 23/11/2019 01:00 01/12/2019 23:59 $59.95 $41.96 30.01% $41.96
RAD 23/11/2019 01:00 01/12/2019 23:59 $29.95 $17.95 40.07% $17.95
EA SPORTS™ FIFA 20 Nintendo Switch™ Legacy Edition 23/11/2019 01:00 01/12/2019 23:59 $69.95 $48.96 30.01% $48.96
Ni no Kuni: Wrath of the White Witch™ 23/11/2019 01:00 01/12/2019 23:59 $89.95 $59.95 33.35% $59.95
Killer Queen Black 23/11/2019 01:00 01/12/2019 23:59 $27.00 $16.20 40.00% $16.20
Golazo! 23/11/2019 01:00 01/12/2019 23:59 $22.50 $15.75 30.00% $15.75
Galaxy Champions TV 23/11/2019 01:00 01/12/2019 23:59 $10.50 $6.30 40.00% $6.30
80 DAYS 23/11/2019 01:00 01/12/2019 23:59 $18.29 $12.80 30.02% $12.80
Hexagroove: Tactical DJ 23/11/2019 01:00 01/12/2019 23:59 $59.99 $39.99 33.34% $39.99
Reventure 23/11/2019 01:00 01/12/2019 23:59 $14.95 $7.47 50.03% $7.47
Subdivision Infinity DX 23/11/2019 01:00 01/12/2019 23:59 $19.99 $13.99 30.02% $13.99
Mighty Switch Force! Collection 23/11/2019 01:00 01/12/2019 23:59 $28.99 $20.29 30.01% $20.29
Wolfenstein®: Youngblood™ Deluxe Edition 23/11/2019 01:00 01/12/2019 23:59 $69.95 $34.97 50.01% $34.97
Songbird Symphony 23/11/2019 01:00 01/12/2019 23:59 $22.50 $15.75 30.00% $15.75
Super Mega Baseball 2: Ultimate Edition 23/11/2019 01:00 01/12/2019 23:59 $39.75 $23.85 40.00% $23.85
Taimumari: Complete Edition 23/11/2019 01:00 13/12/2019 23:59 $19.95 $7.98 60.00% $7.98
Portal Knights - Elves, Rogues, and Rifts 23/11/2019 01:00 01/12/2019 23:59 $15.00 $13.50 10.00% $13.50
Friday the 13th: The Game Ultimate Slasher Edition 23/11/2019 01:00 01/12/2019 23:59 $60.00 $30.00 50.00% $30.00
Headliner: NoviNews 23/11/2019 01:00 01/12/2019 23:59 $19.99 $13.99 30.02% $13.99
Irony Curtain: From Matryoshka with Love 23/11/2019 01:00 01/12/2019 23:59 $30.00 $15.00 50.00% $15.00
LOST ORBIT: Terminal Velocity 23/11/2019 01:00 12/12/2019 23:59 $13.49 $6.74 50.04% $6.74
Contra Anniversary Collection 23/11/2019 01:00 01/12/2019 23:59 $30.00 $15.00 50.00% $15.00
Professor Lupo and his Horrible Pets 23/11/2019 01:00 01/12/2019 23:59 $22.99 $15.40 33.01% $15.40
GOD EATER 3 23/11/2019 01:00 01/12/2019 23:59 $84.95 $49.95 41.20% $49.95
Terraria 23/11/2019 01:00 01/12/2019 23:59 $59.95 $41.96 30.01% $41.96
Blade II - The Return Of Evil 23/11/2019 01:00 01/12/2019 23:59 $34.50 $20.70 40.00% $20.70
Darkwood 23/11/2019 01:00 01/12/2019 23:59 $21.99 $15.39 30.01% $15.39
Rock of Ages 2: Bigger & Boulder™ 23/11/2019 01:00 01/12/2019 23:59 $24.99 $12.49 50.02% $12.49
Atelier Lulua ~The Scion of Arland~ Digital Deluxe Edition 23/11/2019 01:00 01/12/2019 23:59 $112.50 $78.75 30.00% $78.75
Atelier Lulua ~The Scion of Arland~ 23/11/2019 01:00 01/12/2019 23:59 $90.00 $63.00 30.00% $63.00
Cadence of Hyrule – Crypt of the NecroDancer Featuring The Legend of Zelda 23/11/2019 01:00 01/12/2019 23:59 $37.50 $26.25 30.00% $26.25
Lightseekers Fast Start Pack 23/11/2019 01:00 01/12/2019 23:59 $7.99 $3.99 50.06% $3.99
Lightseekers Fast Start Bundle 23/11/2019 01:00 01/12/2019 23:59 $7.99 $3.99 50.06% $3.99
Brothers: A Tale of Two Sons 23/11/2019 01:00 01/12/2019 23:59 $22.50 $15.75 30.00% $15.75
Castlevania Anniversary Collection 23/11/2019 01:00 01/12/2019 23:59 $30.00 $15.00 50.00% $15.00
Yu-Gi-Oh! Legacy of the Duelist: Link Evolution! 23/11/2019 01:00 01/12/2019 23:59 $60.00 $42.00 30.00% $42.00
Arcade Classics Anniversary Collection 23/11/2019 01:00 01/12/2019 23:59 $30.00 $15.00 50.00% $15.00
Cytus a 23/11/2019 01:00 01/12/2019 23:59 $75.00 $52.00 30.67% $52.00
We. The Revolution 23/11/2019 01:00 01/12/2019 23:59 $30.00 $21.00 30.00% $21.00
Season Pass "Totori" 23/11/2019 01:00 01/12/2019 23:59 $45.00 $31.50 30.00% $31.50
Season Pass "Meruru" 23/11/2019 01:00 01/12/2019 23:59 $45.00 $31.50 30.00% $31.50
SEGA AGES Wonder Boy: Monster Land 23/11/2019 01:00 01/12/2019 23:59 $10.95 $5.47 50.05% $5.47
SEGA AGES Virtua Racing 23/11/2019 01:00 01/12/2019 23:59 $10.95 $5.47 50.05% $5.47
WORLDEND SYNDROME 23/11/2019 01:00 01/12/2019 23:59 $75.00 $48.75 35.00% $48.75
Bloodstained: Ritual of the Night 23/11/2019 01:00 01/12/2019 23:59 $69.95 $48.96 30.01% $48.96
Season Pass "Lulua" 23/11/2019 01:00 01/12/2019 23:59 $33.00 $23.10 30.00% $23.10
War Tech Fighters 23/11/2019 01:00 01/12/2019 23:59 $24.99 $17.49 30.01% $17.49
Gurgamoth 24/11/2019 10:00 01/12/2019 23:59 $13.35 $2.67 80.00% $2.67
American Fugitive 25/11/2019 00:00 03/12/2019 23:59 $30.00 $15.00 50.00% $15.00
Strikey Sisters 25/11/2019 01:00 23/12/2019 23:59 $15.00 $10.50 30.00% $10.50
Fate/EXTELLA LINK 25/11/2019 14:00 12/12/2019 23:59 $75.00 $45.00 40.00% $45.00
Glorious Reflexology — Set of Three 25/11/2019 14:00 12/12/2019 23:59 $15.00 $7.50 50.00% $7.50
Special Set 3 25/11/2019 14:00 12/12/2019 23:59 $9.00 $4.50 50.00% $4.50
Special Set 2 25/11/2019 14:00 12/12/2019 23:59 $9.00 $4.50 50.00% $4.50
Resort Set 25/11/2019 14:00 12/12/2019 23:59 $15.00 $7.50 50.00% $7.50
Special Set 1 25/11/2019 14:00 12/12/2019 23:59 $7.50 $3.75 50.00% $3.75
Tropical Set 25/11/2019 14:00 12/12/2019 23:59 $13.50 $6.75 50.00% $6.75
Li'l Characters Set 25/11/2019 14:00 12/12/2019 23:59 $25.50 $12.75 50.00% $12.75
Young Altera 25/11/2019 14:00 12/12/2019 23:59 $15.00 $7.50 50.00% $7.50
Gal Metal 25/11/2019 14:00 12/12/2019 23:59 $30.00 $15.00 50.00% $15.00
Murasaki Reflexions Course & 7 Outfit Set 25/11/2019 14:00 12/12/2019 23:59 $15.00 $7.50 50.00% $7.50
Ryona Reflexions Course & 7 Outfit Set 25/11/2019 14:00 12/12/2019 23:59 $15.00 $7.50 50.00% $7.50
Yomi Reflexions Course & 12 Outfit Set 25/11/2019 14:00 12/12/2019 23:59 $15.00 $7.50 50.00% $7.50
Yumi Reflexions Course & 9 Outfit Set 25/11/2019 14:00 12/12/2019 23:59 $15.00 $7.50 50.00% $7.50
Encore Pack 25/11/2019 14:00 12/12/2019 23:59 $15.00 $7.50 50.00% $7.50
SENRAN KAGURA Reflexions 25/11/2019 14:00 12/12/2019 23:59 $15.00 $9.30 38.00% $9.30
Freedom Planet 25/11/2019 14:00 12/12/2019 23:59 $22.50 $11.25 50.00% $11.25
ASSAULT GUNNERS HD EDITION 25/11/2019 14:00 12/12/2019 23:59 $15.00 $7.50 50.00% $7.50
Fate/EXTELLA: The Umbral Star 25/11/2019 14:00 12/12/2019 23:59 $60.00 $30.00 50.00% $30.00
SENRAN KAGURA Stage BGM Set 25/11/2019 14:00 12/12/2019 23:59 $22.50 $11.25 50.00% $11.25
New Outfit Quartet 25/11/2019 14:00 12/12/2019 23:59 $18.00 $10.50 41.67% $10.50
SENRAN KAGURA Peach Ball 25/11/2019 14:00 12/12/2019 23:59 $60.00 $37.20 38.00% $37.20
Busty Special DLC Set 25/11/2019 14:00 12/12/2019 23:59 $22.50 $11.25 50.00% $11.25
Tower Of Babel 26/11/2019 01:00 23/12/2019 23:59 $9.30 $0.93 90.00% $0.93
Final Light, The Prison 26/11/2019 01:00 23/12/2019 23:59 $10.50 $1.05 90.00% $1.05
Deployment 26/11/2019 01:00 25/12/2019 23:59 $15.00 $3.75 75.00% $3.75
Xtreme Club Racing 26/11/2019 01:00 23/12/2019 23:59 $14.85 $1.48 90.03% $1.48
Monkey King: Master of the Clouds 26/11/2019 07:00 26/12/2019 23:59 $7.50 $3.75 50.00% $3.75
Bubsy: Paws on Fire! 26/11/2019 07:00 26/12/2019 23:59 $37.50 $22.50 40.00% $22.50
Raiden V: Director's Cut 26/11/2019 07:00 26/12/2019 23:59 $45.00 $27.00 40.00% $27.00
Fantasy Strike 26/11/2019 10:00 02/12/2019 23:59 $46.99 $31.01 34.01% $31.01
YUMENIKKI -DREAM DIARY- 27/11/2019 00:00 04/12/2019 23:59 $30.00 $18.00 40.00% $18.00
Super Star Path 27/11/2019 01:00 25/12/2019 23:59 $7.95 $3.97 50.06% $3.97
Bot Vice 27/11/2019 01:00 25/12/2019 23:59 $15.00 $7.50 50.00% $7.50
EARTHLOCK 27/11/2019 01:00 27/12/2019 23:59 $37.50 $7.50 80.00% $7.50
Roof Rage 27/11/2019 04:00 03/12/2019 23:59 $22.50 $15.75 30.00% $15.75
Goat Simulator: The GOATY 27/11/2019 05:00 03/12/2019 23:59 $45.00 $11.25 75.00% $11.25
Antiquia Lost 27/11/2019 10:00 04/12/2019 23:59 $19.50 $11.70 40.00% $11.70
Dragon Sinker 27/11/2019 10:00 04/12/2019 23:59 $19.50 $11.70 40.00% $11.70
Widget Satchel 27/11/2019 10:00 06/12/2019 23:59 $22.50 $18.00 20.00% $18.00
Legend of the Tetrarchs 27/11/2019 10:00 04/12/2019 23:59 $22.50 $15.75 30.00% $15.75
Celeste 27/11/2019 19:00 04/12/2019 23:59 $30.00 $15.00 50.00% $15.00
TowerFall 27/11/2019 19:00 04/12/2019 23:59 $30.00 $15.00 50.00% $15.00
Moorhuhn Wanted 28/11/2019 00:00 28/12/2019 23:59 $10.50 $8.40 20.00% $7.49
Cuphead 28/11/2019 03:00 04/12/2019 23:59 $29.99 $22.49 25.01% $22.49
Fishing Star World Tour 28/11/2019 10:00 18/12/2019 23:59 $37.50 $22.50 40.00% $22.50
Siegecraft Commander 28/11/2019 10:00 28/12/2019 23:59 $24.99 $4.99 80.03% $4.99
Kid Tripp 28/11/2019 10:00 25/12/2019 23:59 $5.20 $2.60 50.00% $1.04
Morphite 28/11/2019 10:00 28/12/2019 23:59 $22.50 $4.50 80.00% $4.50
Cyber Protocol 28/11/2019 10:00 28/12/2019 23:59 $15.00 $4.50 70.00% $4.50
Syberia 1 & 2 28/11/2019 21:00 26/12/2019 23:59 $47.95 $19.18 60.00% $19.18
Not Not - A Brain Buster 29/11/2019 00:00 29/12/2019 23:59 $2.99 $1.49 50.17% $1.49
Blazing Beaks 29/11/2019 00:00 29/12/2019 23:59 $22.50 $4.50 80.00% $4.50
Rimelands: Hammer of Thor 29/11/2019 00:00 29/12/2019 23:59 $14.99 $7.49 50.03% $7.49
Shipped 29/11/2019 00:00 29/12/2019 23:59 $8.99 $4.49 50.06% $4.49
CHOP 29/11/2019 00:00 29/12/2019 23:59 $14.99 $7.49 50.03% $7.49
Warlocks 2: God Slayers 29/11/2019 00:00 29/12/2019 23:59 $26.99 $2.69 90.03% $2.69
Mini Trains 29/11/2019 00:00 29/12/2019 23:59 $8.99 $1.49 83.43% $1.49
Pinball FX3 - Williams™ Pinball: Volume 4 29/11/2019 01:00 05/12/2019 23:59 $14.99 $10.49 30.02% $10.49
Jamestown+ 29/11/2019 01:00 18/12/2019 23:59 $24.00 $19.92 17.00% $19.92
Pinball FX3 - Williams™ Pinball: Volume 3 29/11/2019 01:00 05/12/2019 23:59 $14.99 $10.49 30.02% $7.49
Reptilian Rebellion 29/11/2019 01:00 19/12/2019 23:59 $4.50 $2.25 50.00% $1.12
Pillar 29/11/2019 01:00 18/12/2019 23:59 $12.00 $4.80 60.00% $4.80

Related Stores

Nintendo
Nintendo

Comments

  • +27 votes

    That table!

  • +1 vote

    Great work.

  • +2 votes

    Any good deals?

  • +1 vote

    Woah.
    So as per usual, notable mentions?

    • +4 votes

      I would pick up all of these for around the price they're being discounted at. With the exception of MH and Bastion.
      shining resonanace refrain
      wolf young blood
      Breath of the wild DLC
      Tales of Vesperia
      Katamari Damacy Reroll
      Dont Starve
      Dragon Quest builders 2
      Skyrim
      Monster Hunter (i didnt enjoy this game but if youre in the cult dont remember ever seeing it cheaper anywhere.)
      Cat quest (must buy lol)
      Doom
      valkyria chronicles
      Bastion (i didnt dig the game but its got allot of great reviews)
      songbird symphony
      Morphite
      Overcooked 1 and 2.

      Theres many games im sure i missed but i put it down to distraction. Im going to play pokemon sword lol. I might update when i look through the eshop once the deal starts to check which ones on my wishlist I missed out.

      Edit: added overcooked 2 because ghost74 mentioned the 2nd is on sale. Recommend Overcooked 1 if you plan to play locally.

  •  

    Is this for the EU shop only?

    •  

      US will have their sales, Nintendo often differs for them, sometimes we are better, sometimes them…. happens all the time unfortunately.

  • +9 votes

    This is why I don't buy Nintendo stuff - the pricing is just ridiculous. Breath of the Wild came out in 2017 for crying out loud, yet $63 is still considered a "deal" for it, and that doesn't even include the expansion pass. Compare that to, say, Horizon Zero Dawn which came out about a month before BotW and is currently under $25 (including the expansion) on PS Store, and that's not even on sale. An XBox game from Microsoft would likely be a similar price, but that's a moot point because it would be on GamePass anyway.

    • +13 votes

      And which game can still sell at full price and which needs a bargain bin?

      Don't blame Nintendo as their titles hold value….. Mario Kart still shows up in sales charts.

      •  

        Lol what? Nintendo are to blame due to their pricing.

        • +19 votes

          The point is that games like BotW and Mario Kart 8 are still selling very very well. Whereas Horizon sales numbers are low right now, so they need to decrease price. Many Nintendo games are known as 'evergreen' titles, they sell well throughout the consoles life.

          • +9 votes

            @Adoses: Exactly. Why sell it for $25 when people are paying $80….

            Some people here are stupid. It's no different to an iPhone or a million other desirable things, why doesn't Apple reduce them? Simple. They sell.

          • +5 votes

            @Adoses: It's "evergreen" because there are not many quality games like those on Switch
            On PS4, if HZD is still 63, no one will buy it, they have many good alternatives

            • +5 votes

              @hamsummation: To be fair, HZD gameplay was meh once you get past the fighting against machine animal aspects. It's pretty much a Far Cry game.

              BotW on the other hand runs on a completely different engine, the climbing mechanics is completely different from an AC game (unlike HZD), elements interact with environment (e.g. burning grass which leads to updraft).

              I enjoyed HZD story, but the gameplay can be found anywhere else in most open world games. Nintendo games tend to be "evergreen" because they run on their own game engine, they don't feel like clones of another game. That's why playing Wind Waker or Super Mario Sunshine is still such a joy, while they are not graphically amazing at their time, they make up for it with art style and their own special spin, their own engine.

            •  

              @hamsummation: Thats really true though, games like Mario Kart have always been considered 'evergreen' on Nintendo platforms.

          • -1 vote

            @Adoses:

            Whereas Horizon sales numbers are low right now, so they need to decrease price.

            Where did you get your logic from? That's completely false. Sony can just cut production and prices will go up again. Nintendo can ramp up production and prices will drop. It's completely artificial.

            Exact same scenario as when the Nintendo mini came out on a limited release. Every scalper bought them up and re-sold them for more $$$. It was completely artificial pricing. You know what happened afterwards? Nintendo came back later and released more units, and the prices came back down.

            Nintendo are 100% to blame on pricing, just like Apple are 100% blame on their expensive iphones which are several generations out of date.

            • +2 votes

              @Blitzfx: How is it a matter of blame? It's a business choosing to sell their product at a price they decide on?

              •  

                @khepri: If a business decides to sell at a high price, then they are the ones to blame for setting the high price. How is that not obvious.

              •  

                @khepri: Because people are entitled as hell, and they're blaming Nintendo for their own choice/inability to pay for expensive games.

                I do, however, agree that it would be quite nice if they'd drop prices after a couple of years simply to allow more people to play their games. People who can't afford their top end prices now may be able to in future, and I'm always of the opinion that more people getting their hands on an entertainment product is better in the long run.

            • +2 votes

              @Blitzfx: The flaw in your logic is that Nintendos prices are high despite production being high. MK8 is a remake, and it has sold over 19 million copies… Its still selling over 1 million a quarter even 2.5 years after release. Compare it to Horizon ZD, which also sold very well, having 7.6 million sales in its first year and 2.4 million in its second. So MK8D has far more sales at a much higher average price since HZD has been at <$30 for over a year now.

            •  

              @Blitzfx: LOL are you suggesting Nintendo doesn't supply enough copies of games????

              You really need to do some serious research…. sure they have been guilty of small stock OF HARDWARE to build up hype (like they all do to varying degrees).

              • +1 vote

                @scuderiarmani: I think everyone in this thread needs to read about Japanese companies and cartel markets.

                They've been caught many times doing it from Freight companies to Car manufacturing to pharmaceuticals and several other industries.

                In 2002 Nintendo was fined €149m for price fixing which prevented millions of consumers from purchasing games at cheaper prices.
                This cartel continues still to this day.

                The distributors caught were fined a total of €12 million. Nintendo basically said 'we knew we didn't comply and factored an event of this into our budget' meaning the consumers were paying for this all along, Nintendo paid nothing.

                Something to do with the Japanese and how they do business.

                This is why consumers are being ripped off and tbh, it's highly illegal in Australia. It hurts consumers, forces them to pay more tax and reduces confidence in sectors of the market which ultimately hurts economic growth and innovation within those products. It's collusive behaviour which forces prices to be artificially high. Gamers have the right to purchase games at the cheapest price the market can possibly offer.

                • +1 vote

                  @Combo64: When they are readily available, and in plentiful supply and selling well…. How's that illegal?

                  Apple (as an example) doesn't mass discount their products, they discontinue them. How's that any different?

                  The first party Nintendo titles will hold resale value too so that's a benefit to all here who oppose digitally…

                  • -1 vote

                    @scuderiarmani: You're totally wrong.

                    Apple doesn't have a cartel. It's clear as day to see that. The iPhone 11 has been out a short time and has been on sale from $1699 to $1199 at several places. Same with airpod Pros. Merchants are striving to offer the best possible price the market can offer.

                    Nintendo has a cartel.

                    • +2 votes

                      @Combo64: Lol tinfoil hat time. Nintendo has a Cartel lmao.

                      Apple products aren't being discounted by Apple.

                      You all come across like paranoid entitled people.

                      Mario Kart dominates sales charts 3 years after release, like many other Nintendo first party titles. That means they don't need to drop the RRP. Do any of you have basic business knowledge?

                      Nintendo is offering direct discounts on titles that sell regardless. Apple wasn't, other sellers were.

                      • -4 votes

                        @scuderiarmani: You clearly have no idea about economics, business or the illegal practice at hand.

                        Apple doesn't need to discount but they cannot force other companies down the supply chain not to discount. This is a cartel.

                        They also cannot price fix a market. Competitors are meant to be exactly that, competitors not working together to fix a market. That wouldn't be a market, nor is it trading fairly.

                        https://www.accc.gov.au/business/anti-competitive-behaviour/...

                        • +1 vote

                          @Combo64: So your point exactly?

                          Nintendo should discount their games why exactly?

                          You want them, you pay for them.

                          They aren't only competing, they are excelling in their market, and they don't need to resort to micro transactions or $20 games….

                •  

                  @Combo64: Another brainwashed person replacing reality with the failed predictions of an economic theory and a lot of buzzwords.

              • -5 votes

                @scuderiarmani: I've done my research.

                https://attackofthefanboy.com/news/legend-zelda-breath-wild-...
                https://www.ozbargain.com.au/node/422919 - sold out, I've also personally seen Pikachu sold out on Amazon.
                https://gamefaqs.gamespot.com/boards/189706-nintendo-switch/...
                https://gamefaqs.gamespot.com/boards/189706-nintendo-switch/...
                https://nintendosoup.com/super-mario-odyssey-completely-sold...
                https://www.youtube.com/watch?v=2tDpdfwxySU
                https://comicbook.com/gaming/2018/11/17/super-smash-bros-ult...

                Having low stock is just one of many reasons Nintendo games are such a high price, which increases people's perception of limited stock on Launch day.

                You really need to do some serious research

                I guess you need to do some serious research

                • +2 votes

                  @Blitzfx: Wow. Popular games that sell millions sells out AT LAUNCH.

                  Gets restocked.

                  Wow!!!!

                  Nothing you posted is relevant. Launch prices are often cheaper anyway…. None of what you said is an argument against discounting games that are still selling well years later.

                  • -1 vote

                    @scuderiarmani: So you've linked nothing, done no research and made fake claims in a weak attempt at rebuttal. I literally made the argument that is already well known and is a strategy employed by everyone. Also, LAUNCH day is the most important day.

                    https://conversionxl.com/blog/perceived-value/
                    https://www.researchgate.net/profile/Sang-Eun_Byun/publicati...

                    Literally first google link, and it's all about customer perception rather than reality, but you're probably too low IQ to understand research papers let alone simpler concepts, which you've shown because you haven't and can't explain anything you're saying.

                    Nothing you posted is relevant

                    I guess you speak for yourself

                    •  

                      @Blitzfx: Congrats change argument to suit something irrelevant.

                      Launch, which prices are low anyway, are irrelevant and proves you wrong in itself. If you can't understand this simple concept…

                      You are just coming across as some entitled person who thinks Nintendo should give away product to suit you. Rather than sell it at a value which still generates a lot of sales.

                      • -3 votes

                        @scuderiarmani: Never said, implied or suggested they should sell it low so that everyone can buy it cheap. Speak for yourself

                        Imagine getting rekt and not backing up anything you say with evidence or relevant articles. Everything you say is irrelevant when you literally make shit up LOL

                        Mario Kart dominates sales charts 3 years after release

                        LOL

                        Release Date: April 28, 2017

                        Keep making shit up.

                        •  

                          @Blitzfx: You are a complete waste of time. Going around in circles, changing to suit. Straw man.

                          Now you are nitpicking about a release date.

                          Why don't you read the other comments shooting your rubbish down?

                          Rekt? What are you? 16?

                          Either way I'm blocking you. Don't bother replying.

                          • -1 vote

                            @scuderiarmani:

                            Rekt? What are you? 16?

                            Only stooping down to your level

                            LOL are you suggesting…

                            Gets restocked.

                            Wow!!!!

                            Emotional replies instead of using logic, which you lacked. Mis-use of a strawman where there is none (and you couldn't point it out anyway), and running away when caught making shit up. It isn't nitpicking. That's a strange way of describing lying.

          • +2 votes

            @Adoses: What's the reason for Terraria being $40, on sale. I bought this game for $10 on steam 6 years ago, and $7 on PSN 4 years ago…

    • +10 votes

      Have you played this game? It's worth more than 63$

    • +14 votes

      I guess the question becomes why should something go down in price over time? I doubt manufacturing costs have changed materially for software so if it did fall in price, it would be to capture the rest of the market who weren’t willing to pay full price… which in Nintendo’s case, clearly isn’t an issue given their titles consistently rank near the top of the charts even years after release.

      Kudos to them for not making it a race to the bottom. Not to say I want to pay more for things but I feel their business model for their first party Switch titles being maintained at higher prices helps keep it sustainable and without resorting to loot boxes/micro transactions/etc. Pity about their mobile games though.

      • +3 votes

        Spot on. If say Mario Kart suddenly stopped selling you know they'll release it in a classics range…. In the meantime, they can and will make as much as they can.

      • +5 votes

        Nintendo's lack of price depreciation has made me reconsider how I buy games. I used wait a couple of months and then buy once the price has dropped. I haven't bothered doing this with switch titles..

        Case in point is the launch of both Jedi Fallen Order & Pokemon last friday. I'm excited to play both, but only bought Pokemon at launch. I'll wait until EA drops the price for Fallen Order.

        It's great business for Nintendo, not so great for bargain hunters.

        • +3 votes

          I’ve found it takes so long for first party titles to get discounted I rather keep an eye on OzBargain and Vooks for best launch pricing and buy using discounted gift cards.

        • +1 vote

          You are often better with Nintendo at launch for first party, physically and digitally (pre order double gold coin offers).

          Definitely no point holding out for a Nintendo first party title, better off enjoying day 1, and if you must sell it, you'll have great re-sale.

      •  

        I feel their business model for their first party Switch titles being maintained at higher prices helps keep it sustainable and without resorting to loot boxes/micro transactions/etc

        The video game sector was wildly profitable prior to 2014 and there was never any threat to "sustainability" by not having predatory monetisation practices that have been implemented since.

        Maybe your feelings came about because that's the bullshit message that the the sector's public relation firms dribble out: that there is no alternative to predatory monetisation or else "unsustainability".

        •  

          I don't have any hard facts to back it up so pure speculation but I thought video games have become so mainstream and "big" that it's become like a big budget Hollywood production to produce an AAA title which costs significantly more than what games used to cost to develop. But this is us digressing beyond the original point so I'll bring it back to the point of I appreciate that Nintendo has stability in their pricing and doesn't rely on short term monetisation strategies. The upshot of stable pricing is if you want the game, you just buy it - no point holding out for a cheaper price if it is unlikely to move much anyway.

    • +3 votes

      This is simple supply and demand… Nintendo would drop their prices if they needed to sell more product, obviously they are selling enough at full price…

    •  

      Have you heard of a little game called Skyrim?

      Releasing the new, Skyrim: Ozbargain Edition! Only $99.95, rep $199.95, save $100!

    • +4 votes

      On the other hand, you can purchase it for $60 physically and then sell it for $55 easily once you are done with it.

      Good games should hold value, it makes complete sense and is no different to an Iphone holding value.

      You shouldn't limit yourself to not playing Nintendo due to this, BOTW is one of the greatest games I have ever played, an absolute masterpiece, buy physically and sell to get the experience, you already know it will hold value, if you are a collector then pick it up in 5 times when its down to $20.

    •  

      People are coming back at you saying "Nintendo games hold value" and that "their games are evergreen" but fact is the pricing is pretty rich.

      God of War on PS4 is $19 on Amazon and people loved that game and it was highly rated. People loved BoTW and it is highly rated yet it's still $79 or whatever in stores, but that's okay because Nintendo… There's some cognitive dissonance going on (i.e. games are so good they deserve to stay at launch price, yet it's clear that good games don't always stay at their launch price but with Nintendo they do — and people defend that? Okay…)

      • +1 vote

        I never made any statement about the quality or otherwise of Nintendo games, just the pricing which does, in fact, suck.

        I think some people might forget what site they're posting on sometimes.

      •  

        If Sony could keep God of War at BOTW's price then they would, unfortunately for them it wouldn't sell.

        Nintendo on the other hand can do it and it sells, it's pretty simple.

        Nintendo games therefore hold value over Sony games, the market knows and their buying is adjusted towards it.

        •  

          Hence why I don't buy Nintendo stuff.

        •  

          Who says it wouldn't sell?

          Nintendo games sell because consumers have no choice. Nintendo is a price maker not a price taker. The market is forced to buy at that price, and they do.

          That's not the point either, the point is that their games are overpriced for how old they are — that is an objective fact. It's bizarre that people defend Nintendo and say their games are some sort of magic commodity that doesn't depreciate in value.

          • -2 votes

            @Ghost47: The market determines value and the market keep buying these games, if they were overvalued then the second hand market would represent a lower price.

            Thats the "objective fact"

      •  

        I never claimed God of war was a good game. I wouldn't buy it for 1$, but I would pay 70$ for BOTW on sale. IMO Zelda is worth it, God of War is not. People will make their own choice.

    •  

      Starfox zero was discounted quickly. Other nintendo games go for so much because parents buy them years after release and think its a new release. Just because its old doesn't mean its bad.

  • +2 votes

    Props for the effort! Might actually buy one of these.

  • +13 votes

    for me, digital games aren't worth it. Switch games hold their value most of the times and easy to sell once you're done.

    +1 for the effort though

    •  

      I share the same thought rather than complaining about the nintendo tax.

      Also it’s less likely this way to build another backlog that i will rarely get to play like I already have on ps4 and steam.

      Buy one game, play it, sell it. Rinse and repeat.

      •  

        I’m learning from my mistakes in the past too. Digital games are great for convenience in a portable system but become worthless rapidly. If only Nintendo took a leaf out of Microsoft’s book and made their games compatible in some way with future platforms and automatically transferring over.

        That being said I still have bought a few games I intend to have with me all the time like Mario kart so I don’t need to fumble around with cartridges all the time.

    •  

      Just a shame so many are eshop only… Including big ticket ones like Resident Evil Remake.

    •  

      Have you sold a lot of your old Switch games to be able to make a claim like that, out of curiosity? I bought a Switch recently, haven't tried to sell the two games I have atm (BoTW and Dark Souls). Haven't owned a Nintendo console for a while so kind of new to the whole reselling of used Switch games, but people are saying the same thing in this thread..

      I was going to go mainly physical games at the start but then the convenience of digital games and not having to swap cartridges is very convenient, but then not being able to sell digital games could be an issue if I want to sell my games in the future (big if).

      •  

        Yes. I’m actually on my second Switch for my daughter. First Sold Mario Odessey, Mario Kart, BoTW, Splatoon 2, Smash Ultimate, minecraft, lets go pilachu! etc separately from the console. Just need patience.

        This time around, just have ring fit, minecraft(again) and lets go eevee!

    •  

      where do you sell the cartridges? ebay?

  • Top